createdAt,value
2018-09-04T00:00:54.045Z,22.04
2018-09-04T00:01:54.059Z,21.94
2018-09-04T00:02:54.031Z,21.96
2018-09-04T00:03:54.015Z,21.93
2018-09-04T00:04:54.004Z,21.98
2018-09-04T00:05:53.991Z,22.04
2018-09-04T00:06:54.003Z,21.98
2018-09-04T00:07:53.971Z,22.05
2018-09-04T00:08:53.956Z,21.99
2018-09-04T00:09:53.945Z,22.02
2018-09-04T00:10:53.933Z,22.05
2018-09-04T00:11:53.947Z,21.99
2018-09-04T00:12:53.912Z,21.94
2018-09-04T00:13:53.900Z,22.02
2018-09-04T00:14:53.889Z,22.01
2018-09-04T00:15:53.877Z,21.99
2018-09-04T00:16:53.893Z,21.99
2018-09-04T00:17:53.855Z,21.99
2018-09-04T00:18:53.842Z,21.94
2018-09-04T00:19:53.835Z,21.99
2018-09-04T00:20:53.820Z,21.94
2018-09-04T00:21:53.835Z,21.98
2018-09-04T00:22:53.801Z,21.96
2018-09-04T00:23:53.788Z,22.01
2018-09-04T00:24:53.777Z,21.94
2018-09-04T00:25:53.767Z,21.96
2018-09-04T00:26:53.756Z,22.01
2018-09-04T00:27:53.767Z,21.98
2018-09-04T00:28:53.731Z,21.81
2018-09-04T00:29:53.720Z,21.99
2018-09-04T00:30:53.710Z,21.94
2018-09-04T00:31:53.701Z,21.99
2018-09-04T00:32:53.713Z,21.99
2018-09-04T00:33:53.676Z,21.98
2018-09-04T00:34:53.667Z,22.01
2018-09-04T00:35:53.654Z,22.01
2018-09-04T00:36:53.645Z,21.99
2018-09-04T00:37:53.655Z,21.86
2018-09-04T00:38:53.621Z,21.96
2018-09-04T00:39:53.613Z,21.96
2018-09-04T00:40:53.598Z,21.93
2018-09-04T00:41:53.590Z,21.99
2018-09-04T00:42:53.602Z,21.94
2018-09-04T00:43:53.565Z,21.94
2018-09-04T00:44:53.555Z,21.99
2018-09-04T00:45:53.543Z,21.93
2018-09-04T00:46:53.535Z,21.86
2018-09-04T00:47:53.546Z,21.96
2018-09-04T00:48:53.509Z,21.83
2018-09-04T00:49:53.498Z,21.99
2018-09-04T00:50:53.486Z,21.93
2018-09-04T00:51:53.478Z,21.96
2018-09-04T00:52:53.492Z,21.94
2018-09-04T00:53:53.453Z,21.93
2018-09-04T00:54:53.442Z,21.89
2018-09-04T00:55:53.431Z,21.98
2018-09-04T00:56:53.421Z,21.90
2018-09-04T00:57:53.436Z,21.90
2018-09-04T00:58:53.462Z,21.83
2018-09-04T00:59:53.386Z,21.99
2018-09-04T01:00:53.375Z,21.85
2018-09-04T01:01:53.365Z,21.85
2018-09-04T01:02:53.378Z,21.90
2018-09-04T01:03:53.341Z,22.02
2018-09-04T01:04:53.332Z,21.94
2018-09-04T01:05:53.320Z,21.86
2018-09-04T01:06:53.309Z,21.99
2018-09-04T01:07:53.323Z,21.85
2018-09-04T01:08:53.288Z,21.96
2018-09-04T01:09:53.279Z,21.99
2018-09-04T01:10:53.266Z,21.89
2018-09-04T01:11:53.255Z,21.86
2018-09-04T01:12:53.267Z,21.89
2018-09-04T01:13:53.236Z,21.96
2018-09-04T01:14:53.220Z,21.85
2018-09-04T01:15:53.215Z,21.83
2018-09-04T01:16:53.199Z,21.89
2018-09-04T01:17:53.211Z,21.83
2018-09-04T01:18:53.175Z,21.83
2018-09-04T01:19:53.166Z,21.93
2018-09-04T01:20:53.154Z,21.91
2018-09-04T01:21:53.143Z,21.89
2018-09-04T01:22:53.161Z,21.82
2018-09-04T01:23:53.126Z,21.86
2018-09-04T01:24:53.108Z,21.90
2018-09-04T01:25:53.099Z,21.86
2018-09-04T01:26:53.087Z,21.85
2018-09-04T01:27:53.100Z,21.86
2018-09-04T01:28:53.065Z,21.83
2018-09-04T01:29:53.053Z,21.86
2018-09-04T01:30:53.042Z,21.83
2018-09-04T01:31:53.030Z,21.85
2018-09-04T01:32:53.051Z,21.81
2018-09-04T01:33:53.011Z,21.83
2018-09-04T01:34:52.997Z,21.86
2018-09-04T01:35:52.986Z,21.90
2018-09-04T01:36:52.975Z,21.83
2018-09-04T01:37:52.990Z,21.81
2018-09-04T01:38:52.952Z,21.89
2018-09-04T01:39:52.945Z,21.86
2018-09-04T01:40:52.930Z,21.82
2018-09-04T01:41:52.923Z,21.77
2018-09-04T01:42:52.934Z,21.83
2018-09-04T01:43:52.897Z,21.79
2018-09-04T01:44:52.888Z,21.75
2018-09-04T01:45:52.877Z,21.81
2018-09-04T01:46:52.866Z,21.81
2018-09-04T01:47:52.879Z,21.82
2018-09-04T01:48:52.842Z,21.81
2018-09-04T01:49:52.831Z,21.75
2018-09-04T01:50:52.820Z,21.75
2018-09-04T01:51:52.810Z,21.73
2018-09-04T01:52:52.823Z,21.71
2018-09-04T01:53:52.788Z,21.82
2018-09-04T01:54:52.776Z,21.71
2018-09-04T01:55:52.766Z,21.79
2018-09-04T01:56:52.754Z,21.73
2018-09-04T01:57:52.766Z,21.73
2018-09-04T01:58:52.731Z,21.68
2018-09-04T01:59:52.722Z,21.77
2018-09-04T02:00:52.709Z,21.71
2018-09-04T02:01:52.698Z,21.68
2018-09-04T02:02:52.713Z,21.73
2018-09-04T02:03:52.677Z,21.68
2018-09-04T02:04:52.666Z,21.68
2018-09-04T02:05:52.653Z,21.71
2018-09-04T02:06:52.642Z,21.68
2018-09-04T02:07:52.634Z,21.77
2018-09-04T02:08:52.644Z,21.63
2018-09-04T02:09:52.608Z,21.68
2018-09-04T02:10:52.597Z,21.64
2018-09-04T02:11:52.586Z,21.64
2018-09-04T02:12:52.576Z,21.63
2018-09-04T02:13:52.590Z,21.75
2018-09-04T02:14:52.555Z,21.63
2018-09-04T02:15:52.542Z,21.64
2018-09-04T02:16:52.532Z,21.63
2018-09-04T02:17:52.523Z,21.64
2018-09-04T02:18:52.534Z,21.66
2018-09-04T02:19:52.497Z,21.59
2018-09-04T02:20:52.488Z,21.59
2018-09-04T02:21:52.476Z,21.58
2018-09-04T02:22:52.468Z,21.59
2018-09-04T02:23:52.478Z,21.59
2018-09-04T02:24:52.443Z,21.66
2018-09-04T02:25:52.431Z,21.64
2018-09-04T02:26:52.420Z,21.56
2018-09-04T02:27:52.413Z,21.59
2018-09-04T02:28:52.423Z,21.53
2018-09-04T02:29:52.387Z,21.59
2018-09-04T02:30:52.376Z,21.56
2018-09-04T02:31:52.366Z,21.61
2018-09-04T02:32:52.357Z,21.58
2018-09-04T02:33:52.367Z,21.63
2018-09-04T02:34:52.332Z,21.58
2018-09-04T02:35:52.320Z,21.59
2018-09-04T02:36:52.310Z,21.59
2018-09-04T02:37:52.298Z,21.66
2018-09-04T02:38:52.312Z,21.58
2018-09-04T02:39:52.278Z,21.56
2018-09-04T02:40:52.267Z,21.61
2018-09-04T02:41:52.254Z,21.61
2018-09-04T02:42:52.245Z,21.56
2018-09-04T02:43:52.256Z,21.59
2018-09-04T02:44:52.220Z,21.59
2018-09-04T02:45:52.209Z,21.56
2018-09-04T02:46:52.198Z,21.56
2018-09-04T02:47:52.187Z,21.55
2018-09-04T02:48:52.200Z,21.55
2018-09-04T02:49:52.168Z,21.56
2018-09-04T02:50:52.160Z,21.56
2018-09-04T02:51:52.143Z,21.58
2018-09-04T02:52:52.143Z,21.56
2018-09-04T02:53:52.145Z,21.56
2018-09-04T02:54:52.110Z,21.48
2018-09-04T02:55:52.098Z,21.48
2018-09-04T02:56:52.088Z,21.55
2018-09-04T02:57:52.078Z,21.46
2018-09-04T02:58:52.090Z,21.52
2018-09-04T02:59:52.054Z,21.51
2018-09-04T03:00:52.045Z,21.48
2018-09-04T03:01:52.033Z,21.56
2018-09-04T03:02:52.021Z,21.48
2018-09-04T03:03:52.035Z,21.40
2018-09-04T03:04:52.002Z,21.48
2018-09-04T03:05:51.988Z,21.55
2018-09-04T03:06:51.976Z,21.52
2018-09-04T03:07:51.967Z,21.52
2018-09-04T03:08:51.979Z,21.48
2018-09-04T03:09:51.944Z,21.55
2018-09-04T03:10:51.932Z,21.48
2018-09-04T03:11:51.922Z,21.56
2018-09-04T03:12:51.910Z,21.43
2018-09-04T03:13:52.006Z,21.42
2018-09-04T03:14:51.887Z,21.55
2018-09-04T03:15:51.881Z,21.56
2018-09-04T03:16:51.866Z,21.45
2018-09-04T03:17:51.855Z,21.38
2018-09-04T03:18:51.867Z,21.48
2018-09-04T03:19:51.835Z,21.52
2018-09-04T03:20:51.821Z,21.51
2018-09-04T03:21:51.810Z,21.42
2018-09-04T03:22:51.797Z,21.38
2018-09-04T03:23:51.813Z,21.51
2018-09-04T03:24:51.776Z,21.46
2018-09-04T03:25:51.766Z,21.45
2018-09-04T03:26:51.756Z,21.43
2018-09-04T03:27:51.743Z,21.38
2018-09-04T03:28:51.757Z,21.40
2018-09-04T03:29:51.723Z,21.49
2018-09-04T03:30:51.717Z,21.43
2018-09-04T03:31:51.699Z,21.46
2018-09-04T03:32:51.688Z,21.45
2018-09-04T03:33:51.702Z,21.51
2018-09-04T03:34:51.665Z,21.46
2018-09-04T03:35:51.654Z,21.48
2018-09-04T03:36:51.643Z,21.40
2018-09-04T03:37:51.632Z,21.45
2018-09-04T03:38:51.644Z,21.37
2018-09-04T03:39:51.611Z,21.43
2018-09-04T03:40:51.601Z,21.45
2018-09-04T03:41:51.587Z,21.37
2018-09-04T03:42:51.577Z,21.37
2018-09-04T03:43:51.592Z,21.38
2018-09-04T03:44:51.554Z,21.45
2018-09-04T03:45:51.563Z,21.34
2018-09-04T03:46:51.532Z,21.38
2018-09-04T03:47:51.521Z,21.42
2018-09-04T03:48:51.512Z,21.38
2018-09-04T03:49:51.523Z,21.40
2018-09-04T03:50:51.487Z,21.45
2018-09-04T03:51:51.476Z,21.38
2018-09-04T03:52:51.467Z,21.38
2018-09-04T03:53:51.457Z,21.37
2018-09-04T03:54:51.466Z,21.31
2018-09-04T03:55:51.431Z,21.37
2018-09-04T03:56:51.421Z,21.42
2018-09-04T03:57:51.409Z,21.34
2018-09-04T03:58:51.400Z,21.36
2018-09-04T03:59:51.411Z,21.37
2018-09-04T04:00:51.379Z,21.38
2018-09-04T04:01:51.367Z,21.38
2018-09-04T04:02:51.356Z,21.37
2018-09-04T04:03:51.370Z,21.31
2018-09-04T04:04:51.358Z,21.31
2018-09-04T04:05:51.320Z,21.34
2018-09-04T04:06:51.311Z,21.33
2018-09-04T04:07:51.301Z,21.38
2018-09-04T04:08:51.288Z,21.30
2018-09-04T04:09:51.305Z,21.37
2018-09-04T04:10:51.268Z,21.38
2018-09-04T04:11:51.297Z,21.34
2018-09-04T04:12:51.243Z,21.33
2018-09-04T04:13:51.231Z,21.33
2018-09-04T04:14:51.243Z,21.37
2018-09-04T04:15:51.211Z,21.36
2018-09-04T04:16:51.204Z,21.28
2018-09-04T04:17:51.186Z,21.26
2018-09-04T04:18:51.179Z,21.36
2018-09-04T04:19:51.190Z,21.37
2018-09-04T04:20:51.153Z,21.33
2018-09-04T04:21:51.141Z,21.31
2018-09-04T04:22:51.130Z,21.30
2018-09-04T04:23:51.186Z,21.28
2018-09-04T04:24:51.133Z,21.37
2018-09-04T04:25:51.097Z,21.30
2018-09-04T04:26:51.085Z,21.30
2018-09-04T04:27:51.076Z,21.30
2018-09-04T04:28:51.065Z,21.34
2018-09-04T04:29:51.076Z,21.31
2018-09-04T04:30:51.041Z,21.30
2018-09-04T04:31:51.031Z,21.30
2018-09-04T04:32:51.019Z,21.34
2018-09-04T04:33:51.007Z,21.27
2018-09-04T04:34:50.998Z,21.24
2018-09-04T04:35:51.012Z,21.28
2018-09-04T04:36:50.974Z,21.36
2018-09-04T04:37:50.964Z,21.31
2018-09-04T04:38:50.953Z,21.31
2018-09-04T04:39:50.984Z,21.30
2018-09-04T04:40:50.931Z,21.22
2018-09-04T04:41:50.918Z,21.31
2018-09-04T04:42:50.907Z,21.26
2018-09-04T04:43:50.895Z,21.27
2018-09-04T04:44:50.888Z,21.26
2018-09-04T04:45:50.898Z,21.28
2018-09-04T04:46:50.864Z,21.26
2018-09-04T04:47:50.912Z,21.22
2018-09-04T04:48:50.841Z,21.22
2018-09-04T04:49:50.832Z,21.24
2018-09-04T04:50:50.843Z,21.30
2018-09-04T04:51:50.807Z,21.28
2018-09-04T04:52:50.799Z,21.24
2018-09-04T04:53:50.786Z,21.27
2018-09-04T04:54:50.777Z,21.28
2018-09-04T04:55:50.790Z,21.27
2018-09-04T04:56:50.754Z,21.27
2018-09-04T04:57:50.740Z,21.27
2018-09-04T04:58:50.731Z,21.26
2018-09-04T04:59:50.722Z,21.27
2018-09-04T05:00:50.732Z,21.22
2018-09-04T05:01:50.696Z,21.30
2018-09-04T05:02:50.730Z,21.30
2018-09-04T05:03:50.673Z,21.30
2018-09-04T05:04:50.665Z,21.31
2018-09-04T05:05:50.688Z,21.27
2018-09-04T05:06:50.640Z,21.28
2018-09-04T05:07:50.629Z,21.33
2018-09-04T05:08:50.617Z,21.24
2018-09-04T05:09:50.607Z,21.30
2018-09-04T05:10:50.620Z,21.30
2018-09-04T05:11:50.586Z,21.37
2018-09-04T05:12:50.582Z,21.34
2018-09-04T05:13:50.563Z,21.33
2018-09-04T05:14:50.551Z,21.33
2018-09-04T05:15:50.565Z,21.27
2018-09-04T05:16:50.528Z,21.34
2018-09-04T05:17:50.519Z,21.30
2018-09-04T05:18:50.507Z,21.24
2018-09-04T05:19:50.497Z,21.36
2018-09-04T05:20:50.511Z,21.31
2018-09-04T05:21:50.472Z,21.42
2018-09-04T05:22:50.465Z,21.31
2018-09-04T05:23:50.451Z,21.31
2018-09-04T05:24:50.441Z,21.30
2018-09-04T05:25:50.452Z,21.33
2018-09-04T05:26:50.418Z,21.34
2018-09-04T05:27:50.409Z,21.36
2018-09-04T05:28:50.396Z,21.28
2018-09-04T05:29:50.386Z,21.27
2018-09-04T05:30:50.398Z,21.27
2018-09-04T05:31:50.365Z,21.33
2018-09-04T05:32:50.350Z,21.37
2018-09-04T05:33:50.340Z,21.30
2018-09-04T05:34:50.328Z,21.30
2018-09-04T05:35:50.341Z,21.34
2018-09-04T05:36:50.396Z,21.06
2018-09-04T05:37:50.295Z,20.81
2018-09-04T05:38:50.283Z,20.71
2018-09-04T05:39:50.277Z,20.57
2018-09-04T05:40:50.288Z,20.33
2018-09-04T05:41:50.250Z,20.23
2018-09-04T05:42:50.240Z,20.08
2018-09-04T05:43:50.230Z,19.97
2018-09-04T05:44:50.216Z,19.83
2018-09-04T05:45:50.231Z,19.85
2018-09-04T05:46:50.201Z,19.75
2018-09-04T05:47:50.183Z,19.72
2018-09-04T05:48:50.173Z,19.64
2018-09-04T05:49:50.162Z,19.67
2018-09-04T05:50:50.173Z,19.65
2018-09-04T05:51:50.141Z,19.67
2018-09-04T05:52:50.127Z,19.52
2018-09-04T05:53:50.116Z,19.46
2018-09-04T05:54:50.105Z,19.57
2018-09-04T05:55:50.118Z,19.43
2018-09-04T05:56:50.084Z,19.42
2018-09-04T05:57:50.072Z,19.30
2018-09-04T05:58:50.060Z,19.30
2018-09-04T05:59:50.052Z,19.16
2018-09-04T06:00:50.063Z,19.12
2018-09-04T06:01:50.036Z,19.01
2018-09-04T06:02:50.016Z,18.97
2018-09-04T06:03:50.005Z,19.06
2018-09-04T06:04:49.992Z,19.02
2018-09-04T06:05:50.007Z,19.06
2018-09-04T06:06:49.974Z,19.02
2018-09-04T06:07:49.960Z,19.06
2018-09-04T06:08:49.948Z,19.01
2018-09-04T06:09:49.939Z,19.02
2018-09-04T06:10:49.953Z,19.01
2018-09-04T06:11:49.914Z,19.10
2018-09-04T06:12:49.904Z,19.02
2018-09-04T06:13:50.023Z,19.09
2018-09-04T06:14:49.886Z,19.01
2018-09-04T06:15:49.895Z,19.02
2018-09-04T06:16:49.860Z,19.07
2018-09-04T06:17:49.849Z,19.06
2018-09-04T06:18:49.841Z,19.05
2018-09-04T06:19:49.864Z,18.97
2018-09-04T06:20:49.839Z,18.90
2018-09-04T06:21:49.806Z,18.87
2018-09-04T06:22:49.792Z,18.87
2018-09-04T06:23:49.782Z,18.90
2018-09-04T06:24:49.771Z,18.93
2018-09-04T06:25:49.762Z,19.01
2018-09-04T06:26:49.771Z,18.99
2018-09-04T06:27:49.737Z,19.02
2018-09-04T06:28:49.727Z,19.10
2018-09-04T06:29:49.715Z,19.05
2018-09-04T06:30:49.710Z,19.12
2018-09-04T06:31:49.717Z,19.12
2018-09-04T06:32:49.681Z,19.10
2018-09-04T06:33:49.672Z,19.10
2018-09-04T06:34:49.659Z,19.10
2018-09-04T06:35:49.649Z,19.12
2018-09-04T06:36:49.742Z,19.05
2018-09-04T06:37:49.627Z,19.02
2018-09-04T06:38:49.615Z,18.93
2018-09-04T06:39:49.606Z,19.02
2018-09-04T06:40:49.594Z,18.84
2018-09-04T06:41:49.608Z,18.94
2018-09-04T06:42:49.572Z,18.94
2018-09-04T06:43:49.560Z,18.96
2018-09-04T06:44:49.548Z,18.90
2018-09-04T06:45:49.539Z,19.05
2018-09-04T06:46:49.550Z,19.05
2018-09-04T06:47:49.514Z,18.99
2018-09-04T06:48:49.504Z,18.99
2018-09-04T06:49:49.494Z,19.16
2018-09-04T06:50:49.546Z,19.13
2018-09-04T06:51:49.494Z,19.25
2018-09-04T06:52:49.461Z,19.20
2018-09-04T06:53:49.449Z,19.12
2018-09-04T06:54:49.436Z,19.06
2018-09-04T06:55:49.425Z,19.16
2018-09-04T06:56:49.438Z,19.02
2018-09-04T06:57:49.477Z,19.10
2018-09-04T06:58:49.392Z,19.23
2018-09-04T06:59:49.380Z,19.24
2018-09-04T07:00:49.370Z,19.28
2018-09-04T07:01:49.383Z,19.43
2018-09-04T07:02:49.348Z,19.46
2018-09-04T07:03:49.336Z,19.52
2018-09-04T07:04:49.328Z,19.60
2018-09-04T07:05:49.317Z,19.60
2018-09-04T07:06:49.327Z,19.62
2018-09-04T07:07:49.291Z,19.68
2018-09-04T07:08:49.280Z,19.71
2018-09-04T07:09:49.268Z,19.75
2018-09-04T07:10:49.257Z,19.83
2018-09-04T07:11:49.270Z,19.83
2018-09-04T07:12:49.236Z,19.87
2018-09-04T07:13:49.224Z,19.86
2018-09-04T07:14:49.213Z,19.83
2018-09-04T07:15:49.201Z,19.97
2018-09-04T07:16:49.216Z,20.04
2018-09-04T07:17:49.179Z,20.07
2018-09-04T07:18:49.174Z,20.01
2018-09-04T07:19:49.157Z,20.01
2018-09-04T07:20:49.145Z,20.02
2018-09-04T07:21:49.158Z,19.89
2018-09-04T07:22:49.123Z,19.97
2018-09-04T07:23:49.112Z,20.02
2018-09-04T07:24:49.101Z,20.01
2018-09-04T07:25:49.089Z,19.98
2018-09-04T07:26:49.102Z,19.98
2018-09-04T07:27:49.067Z,20.01
2018-09-04T07:28:49.057Z,19.90
2018-09-04T07:29:49.048Z,20.01
2018-09-04T07:30:49.035Z,20.13
2018-09-04T07:31:49.047Z,20.20
2018-09-04T07:32:49.011Z,20.19
2018-09-04T07:33:49.000Z,20.15
2018-09-04T07:34:48.990Z,20.17
2018-09-04T07:35:48.979Z,20.13
2018-09-04T07:36:48.991Z,20.05
2018-09-04T07:37:48.955Z,20.08
2018-09-04T07:38:48.944Z,20.15
2018-09-04T07:39:48.934Z,20.12
2018-09-04T07:40:48.922Z,20.13
2018-09-04T07:41:48.967Z,20.16
2018-09-04T07:42:48.909Z,20.19
2018-09-04T07:43:48.891Z,20.16
2018-09-04T07:44:48.877Z,20.17
2018-09-04T07:45:48.867Z,20.20
2018-09-04T07:46:48.880Z,20.22
2018-09-04T07:47:48.844Z,20.17
2018-09-04T07:48:48.832Z,20.17
2018-09-04T07:49:48.824Z,20.19
2018-09-04T07:50:48.810Z,20.22
2018-09-04T07:51:49.280Z,20.17
2018-09-04T07:52:48.789Z,20.17
2018-09-04T07:53:48.849Z,20.26
2018-09-04T07:54:48.767Z,20.27
2018-09-04T07:55:48.754Z,20.30
2018-09-04T07:56:48.788Z,20.23
2018-09-04T07:57:48.732Z,20.33
2018-09-04T07:58:48.720Z,20.33
2018-09-04T07:59:48.709Z,20.38
2018-09-04T08:00:48.723Z,20.42
2018-09-04T08:01:48.714Z,20.56
2018-09-04T08:02:48.676Z,20.64
2018-09-04T08:03:48.666Z,20.63
2018-09-04T08:04:48.654Z,20.56
2018-09-04T08:05:48.647Z,20.54
2018-09-04T08:06:48.655Z,20.61
2018-09-04T08:07:48.623Z,20.50
2018-09-04T08:08:48.610Z,20.56
2018-09-04T08:09:48.611Z,20.57
2018-09-04T08:10:48.594Z,20.61
2018-09-04T08:11:48.580Z,20.66
2018-09-04T08:12:48.589Z,20.63
2018-09-04T08:13:48.556Z,20.68
2018-09-04T08:14:48.545Z,20.76
2018-09-04T08:15:48.536Z,20.69
2018-09-04T08:16:48.532Z,20.73
2018-09-04T08:17:48.562Z,20.79
2018-09-04T08:18:48.501Z,20.85
2018-09-04T08:19:48.488Z,20.82
2018-09-04T08:20:48.498Z,20.79
2018-09-04T08:21:48.467Z,20.93
2018-09-04T08:22:48.479Z,21.03
2018-09-04T08:23:48.443Z,21.00
2018-09-04T08:24:48.431Z,21.00
2018-09-04T08:25:48.425Z,21.05
2018-09-04T08:26:48.412Z,21.16
2018-09-04T08:27:48.422Z,21.22
2018-09-04T08:28:48.387Z,21.30
2018-09-04T08:29:48.376Z,21.27
2018-09-04T08:30:48.364Z,21.46
2018-09-04T08:31:48.354Z,21.33
2018-09-04T08:32:48.391Z,21.38
2018-09-04T08:33:48.332Z,21.36
2018-09-04T08:34:48.320Z,21.43
2018-09-04T08:35:48.309Z,21.48
2018-09-04T08:36:48.301Z,21.49
2018-09-04T08:37:48.313Z,21.59
2018-09-04T08:38:48.276Z,21.63
2018-09-04T08:39:48.265Z,21.58
2018-09-04T08:40:48.254Z,21.66
2018-09-04T08:41:48.256Z,21.64
2018-09-04T08:42:48.259Z,21.71
2018-09-04T08:43:48.220Z,21.73
2018-09-04T08:44:48.209Z,21.81
2018-09-04T08:45:48.200Z,21.74
2018-09-04T08:46:48.188Z,21.82
2018-09-04T08:47:48.251Z,21.90
2018-09-04T08:48:48.166Z,21.89
2018-09-04T08:49:48.154Z,21.86
2018-09-04T08:50:48.145Z,21.81
2018-09-04T08:51:48.134Z,21.85
2018-09-04T08:52:48.147Z,21.85
2018-09-04T08:53:48.112Z,21.96
2018-09-04T08:54:48.099Z,21.94
2018-09-04T08:55:48.090Z,21.86
2018-09-04T08:56:48.079Z,21.94
2018-09-04T08:57:48.091Z,21.99
2018-09-04T09:01:00.313Z,21.99
2018-09-04T09:02:00.282Z,22.01
2018-09-04T09:03:00.293Z,22.04
2018-09-04T09:04:00.261Z,21.99
2018-09-04T09:05:00.246Z,22.19
2018-09-04T09:06:00.235Z,22.06
2018-09-04T09:07:00.227Z,22.20
2018-09-04T09:08:00.237Z,22.21
2018-09-04T09:09:00.204Z,22.21
2018-09-04T09:10:00.252Z,22.20
2018-09-04T09:11:00.180Z,22.23
2018-09-04T09:12:00.174Z,22.27
2018-09-04T09:13:00.178Z,22.27
2018-09-04T09:14:00.146Z,22.23
2018-09-04T09:15:00.136Z,22.33
2018-09-04T09:16:00.122Z,22.30
2018-09-04T09:17:00.112Z,22.27
2018-09-04T09:18:00.124Z,22.31
2018-09-04T09:19:00.094Z,22.33
2018-09-04T09:20:00.084Z,22.38
2018-09-04T09:21:00.074Z,22.33
2018-09-04T09:22:00.059Z,22.36
2018-09-04T09:23:00.270Z,22.33
2018-09-04T09:24:00.034Z,22.26
2018-09-04T09:25:00.023Z,22.35
2018-09-04T09:26:00.017Z,22.36
2018-09-04T09:27:00.001Z,22.33
2018-09-04T09:28:00.013Z,22.51
2018-09-04T09:28:59.979Z,22.42
2018-09-04T09:29:59.967Z,22.57
2018-09-04T09:30:59.956Z,22.54
2018-09-04T09:31:59.945Z,22.56
2018-09-04T09:32:59.960Z,22.67
2018-09-04T09:33:59.924Z,22.63
2018-09-04T09:34:59.968Z,22.61
2018-09-04T09:35:59.901Z,22.70
2018-09-04T09:36:59.977Z,22.74
2018-09-04T09:37:59.899Z,22.79
2018-09-04T09:38:59.864Z,22.76
2018-09-04T09:39:59.855Z,22.82
2018-09-04T09:40:59.843Z,22.82
2018-09-04T09:41:59.832Z,22.75
2018-09-04T09:42:59.843Z,22.82
2018-09-04T09:43:59.810Z,22.76
2018-09-04T09:44:59.804Z,22.81
2018-09-04T09:45:59.787Z,23.04
2018-09-04T09:46:59.776Z,23.03
2018-09-04T09:48:10.573Z,23.03
2018-09-04T09:48:59.753Z,22.96
2018-09-04T09:49:59.742Z,23.06
2018-09-04T09:50:59.732Z,23.09
2018-09-04T09:51:59.719Z,23.12
2018-09-04T09:52:59.841Z,23.15
2018-09-04T09:53:59.714Z,23.16
2018-09-04T09:54:59.686Z,23.19
2018-09-04T09:55:59.675Z,23.14
2018-09-04T09:56:59.664Z,23.29
2018-09-04T09:57:59.674Z,23.35
2018-09-04T09:58:59.641Z,23.31
2018-09-04T09:59:59.726Z,23.35
2018-09-04T10:00:59.709Z,23.34
2018-09-04T10:01:59.606Z,23.45
2018-09-04T10:02:59.600Z,23.49
2018-09-04T10:03:59.698Z,23.52
2018-09-04T10:04:59.573Z,23.57
2018-09-04T10:05:59.562Z,23.44
2018-09-04T10:06:59.549Z,23.25
2018-09-04T10:07:59.640Z,23.32
2018-09-04T10:08:59.527Z,23.14
2018-09-04T10:09:59.518Z,23.25
2018-09-04T10:10:59.530Z,23.18
2018-09-04T10:11:59.496Z,23.18
2018-09-04T10:12:59.489Z,23.19
2018-09-04T10:13:59.495Z,23.31
2018-09-04T10:14:59.460Z,23.26
2018-09-04T10:16:01.037Z,23.23
2018-09-04T10:16:59.519Z,23.32
2018-09-04T10:17:59.447Z,23.26
2018-09-04T10:18:59.438Z,23.39
2018-09-04T10:19:59.488Z,23.50
2018-09-04T10:20:59.397Z,23.59
2018-09-04T10:21:59.382Z,23.68
2018-09-04T10:22:59.376Z,23.67
2018-09-04T10:23:59.414Z,23.63
2018-09-04T10:24:59.346Z,23.67
2018-09-04T10:25:59.338Z,23.72
2018-09-04T10:26:59.324Z,23.84
2018-09-04T10:27:59.316Z,23.84
2018-09-04T10:28:59.332Z,23.89
2018-09-04T10:29:59.291Z,23.89
2018-09-04T10:30:59.279Z,23.99
2018-09-04T10:31:59.267Z,23.89
2018-09-04T10:32:59.255Z,23.99
2018-09-04T10:33:59.271Z,24.00
2018-09-04T10:34:59.235Z,24.04
2018-09-04T10:35:59.222Z,24.05
2018-09-04T10:36:59.240Z,24.09
2018-09-04T10:37:59.202Z,24.15
2018-09-04T10:38:59.216Z,24.23
2018-09-04T10:39:59.222Z,24.30
2018-09-04T10:40:59.204Z,24.31
2018-09-04T10:41:59.181Z,24.44
2018-09-04T10:42:59.169Z,24.51
2018-09-04T10:43:59.156Z,24.56
2018-09-04T10:44:59.122Z,24.61
2018-09-04T10:45:59.112Z,24.67
2018-09-04T10:46:59.099Z,24.64
2018-09-04T10:47:59.090Z,24.51
2018-09-04T10:48:59.557Z,24.53
2018-09-04T10:49:59.067Z,24.45
2018-09-04T10:50:59.055Z,24.51
2018-09-04T10:51:59.045Z,24.55
2018-09-04T10:52:59.033Z,24.56
2018-09-04T10:53:59.045Z,24.61
2018-09-04T10:54:59.012Z,24.68
2018-09-04T10:55:58.998Z,24.71
2018-09-04T10:56:58.994Z,24.71
2018-09-04T10:57:59.070Z,24.97
2018-09-04T10:58:58.990Z,25.08
2018-09-04T10:59:58.955Z,25.05
2018-09-04T11:00:59.017Z,25.07
2018-09-04T11:01:58.933Z,25.12
2018-09-04T11:02:58.926Z,25.14
2018-09-04T11:03:58.951Z,25.17
2018-09-04T11:04:58.900Z,25.04
2018-09-04T11:05:58.893Z,25.05
2018-09-04T11:06:58.876Z,25.12
2018-09-04T11:07:58.864Z,25.11
2018-09-04T11:08:58.888Z,25.24
2018-09-04T11:09:58.951Z,25.29
2018-09-04T11:10:58.831Z,25.35
2018-09-04T11:11:58.821Z,25.35
2018-09-04T11:12:58.809Z,25.51
2018-09-04T11:13:58.820Z,25.57
2018-09-04T11:14:58.787Z,25.49
2018-09-04T11:15:58.774Z,25.66
2018-09-04T11:16:58.764Z,25.63
2018-09-04T11:17:58.752Z,25.64
2018-09-04T11:18:58.765Z,25.72
2018-09-04T11:19:58.730Z,25.64
2018-09-04T11:20:58.718Z,25.69
2018-09-04T11:21:58.707Z,25.67
2018-09-04T11:22:58.696Z,25.71
2018-09-04T11:23:58.713Z,25.66
2018-09-04T11:24:58.673Z,25.66
2018-09-04T11:25:58.665Z,25.71
2018-09-04T11:26:58.651Z,25.69
2018-09-04T11:27:58.641Z,25.66
2018-09-04T11:28:58.653Z,25.63
2018-09-04T11:29:58.618Z,25.66
2018-09-04T11:30:58.607Z,25.71
2018-09-04T11:31:58.595Z,25.72
2018-09-04T11:32:58.589Z,25.71
2018-09-04T11:33:58.601Z,25.72
2018-09-04T11:34:58.562Z,25.66
2018-09-04T11:35:58.550Z,25.76
2018-09-04T11:36:58.539Z,25.75
2018-09-04T11:37:58.530Z,25.74
2018-09-04T11:38:58.540Z,25.75
2018-09-04T11:39:58.506Z,25.72
2018-09-04T11:40:58.495Z,25.74
2018-09-04T11:41:58.485Z,25.67
2018-09-04T11:42:58.472Z,25.69
2018-09-04T11:43:58.484Z,25.71
2018-09-04T11:44:58.450Z,25.69
2018-09-04T11:45:58.440Z,25.63
2018-09-04T11:46:58.541Z,25.71
2018-09-04T11:47:58.415Z,25.72
2018-09-04T11:48:58.429Z,25.79
2018-09-04T11:49:58.395Z,25.82
2018-09-04T11:50:58.382Z,25.93
2018-09-04T11:51:58.371Z,26.03
2018-09-04T11:52:58.365Z,25.94
2018-09-04T11:53:58.352Z,26.06
2018-09-04T11:54:58.362Z,26.00
2018-09-04T11:55:58.328Z,26.04
2018-09-04T11:56:58.319Z,26.21
2018-09-04T11:57:58.306Z,26.32
2018-09-04T11:58:58.296Z,26.19
2018-09-04T11:59:58.310Z,26.20
2018-09-04T12:00:58.275Z,26.29
2018-09-04T12:01:58.265Z,26.29
2018-09-04T12:02:58.254Z,26.35
2018-09-04T12:03:58.243Z,26.32
2018-09-04T12:04:58.253Z,26.41
2018-09-04T12:05:58.220Z,26.56
2018-09-04T12:06:58.209Z,26.57
2018-09-04T12:07:58.198Z,26.75
2018-09-04T12:08:58.212Z,26.79
2018-09-04T12:09:58.175Z,26.90
2018-09-04T12:10:58.165Z,26.87
2018-09-04T12:11:58.155Z,26.91
2018-09-04T12:12:58.174Z,26.96
2018-09-04T12:13:58.169Z,26.97
2018-09-04T12:14:58.122Z,26.94
2018-09-04T12:15:58.109Z,26.93
2018-09-04T12:16:58.099Z,26.94
2018-09-04T12:17:58.091Z,27.01
2018-09-04T12:18:58.143Z,26.98
2018-09-04T12:19:58.087Z,27.12
2018-09-04T12:20:58.190Z,27.18
2018-09-04T12:21:58.041Z,27.21
2018-09-04T12:22:58.032Z,27.18
2018-09-04T12:23:58.018Z,27.25
2018-09-04T12:24:58.032Z,27.18
2018-09-04T12:25:57.995Z,27.25
2018-09-04T12:26:57.984Z,27.25
2018-09-04T12:27:57.974Z,27.27
2018-09-04T12:28:57.962Z,27.18
2018-09-04T12:29:57.973Z,27.25
2018-09-04T12:30:57.939Z,27.38
2018-09-04T12:31:57.930Z,27.39
2018-09-04T12:32:57.916Z,27.34
2018-09-04T12:33:57.941Z,27.42
2018-09-04T12:34:57.919Z,27.48
2018-09-04T12:35:57.888Z,27.35
2018-09-04T12:36:57.871Z,27.18
2018-09-04T12:37:57.858Z,27.35
2018-09-04T12:38:57.847Z,27.30
2018-09-04T12:39:57.859Z,27.34
2018-09-04T12:40:57.824Z,27.34
2018-09-04T12:41:57.814Z,27.42
2018-09-04T12:42:57.805Z,27.39
2018-09-04T12:43:57.791Z,27.59
2018-09-04T12:44:57.803Z,27.69
2018-09-04T12:45:57.771Z,27.83
2018-09-04T12:46:57.760Z,27.93
2018-09-04T12:47:57.776Z,27.87
2018-09-04T12:48:57.736Z,27.93
2018-09-04T12:49:57.748Z,27.95
2018-09-04T12:50:57.716Z,28.18
2018-09-04T12:51:57.705Z,28.20
2018-09-04T12:52:57.694Z,28.23
2018-09-04T12:53:57.693Z,28.43
2018-09-04T12:54:57.698Z,28.60